createdAt,value
2017-08-07T00:00:27.871Z,0
2017-08-07T00:01:08.769Z,0
2017-08-07T00:01:49.662Z,0
2017-08-07T00:02:30.559Z,0
2017-08-07T00:03:11.442Z,0
2017-08-07T00:03:52.330Z,0
2017-08-07T00:04:33.240Z,0
2017-08-07T00:05:14.128Z,0
2017-08-07T00:05:55.015Z,0
2017-08-07T00:06:35.916Z,0
2017-08-07T00:07:16.801Z,0
2017-08-07T00:07:57.685Z,0
2017-08-07T00:08:38.592Z,0
2017-08-07T00:09:19.479Z,0
2017-08-07T00:10:00.371Z,0
2017-08-07T00:10:41.268Z,0
2017-08-07T00:11:22.152Z,0
2017-08-07T00:12:03.040Z,0
2017-08-07T00:12:43.932Z,0
2017-08-07T00:13:24.845Z,0
2017-08-07T00:14:05.732Z,0
2017-08-07T00:14:46.620Z,0
2017-08-07T00:15:27.520Z,0
2017-08-07T00:16:08.402Z,0
2017-08-07T00:16:49.291Z,0
2017-08-07T00:17:30.183Z,0
2017-08-07T00:18:11.068Z,0
2017-08-07T00:18:51.982Z,0
2017-08-07T00:19:32.870Z,0
2017-08-07T00:20:13.768Z,0
2017-08-07T00:20:54.662Z,0
2017-08-07T00:21:35.555Z,0
2017-08-07T00:22:16.445Z,0
2017-08-07T00:22:57.326Z,0
2017-08-07T00:23:38.219Z,0
2017-08-07T00:24:19.111Z,0
2017-08-07T00:25:00.002Z,0
2017-08-07T00:25:40.888Z,0
2017-08-07T00:26:21.805Z,0
2017-08-07T00:27:02.694Z,0
2017-08-07T00:27:43.586Z,0
2017-08-07T00:28:24.481Z,0
2017-08-07T00:29:05.369Z,0
2017-08-07T00:29:46.380Z,0
2017-08-07T00:30:27.297Z,0
2017-08-07T00:31:08.174Z,0
2017-08-07T00:31:49.070Z,0
2017-08-07T00:32:29.964Z,0
2017-08-07T00:33:10.851Z,0
2017-08-07T00:33:51.735Z,0
2017-08-07T00:34:32.646Z,0
2017-08-07T00:35:13.537Z,0
2017-08-07T00:35:54.430Z,0
2017-08-07T00:36:35.320Z,0
2017-08-07T00:37:16.206Z,0
2017-08-07T00:37:57.102Z,0
2017-08-07T00:38:37.985Z,0
2017-08-07T00:39:18.877Z,0
2017-08-07T00:39:59.766Z,0
2017-08-07T00:40:40.663Z,0
2017-08-07T00:41:21.555Z,0
2017-08-07T00:42:02.444Z,0
2017-08-07T00:42:43.334Z,0
2017-08-07T00:43:24.219Z,0
2017-08-07T00:44:05.109Z,0
2017-08-07T00:44:46.019Z,0
2017-08-07T00:45:26.909Z,0
2017-08-07T00:46:07.808Z,0
2017-08-07T00:46:48.697Z,0
2017-08-07T00:47:29.592Z,0
2017-08-07T00:48:10.487Z,0
2017-08-07T00:48:51.373Z,0
2017-08-07T00:49:32.271Z,0
2017-08-07T00:50:13.162Z,0
2017-08-07T00:50:54.043Z,0
2017-08-07T00:51:34.931Z,0
2017-08-07T00:52:15.825Z,0
2017-08-07T00:52:56.714Z,0
2017-08-07T00:55:06.715Z,0
2017-08-07T00:55:47.604Z,0
2017-08-07T00:56:28.493Z,0
2017-08-07T00:57:09.383Z,0
2017-08-07T00:57:50.274Z,0
2017-08-07T00:58:31.163Z,0
2017-08-07T00:59:12.063Z,0
2017-08-07T00:59:52.954Z,0
2017-08-07T01:00:33.892Z,0
2017-08-07T01:01:14.782Z,0
2017-08-07T01:01:55.665Z,0
2017-08-07T01:02:36.558Z,0
2017-08-07T01:03:17.442Z,0
2017-08-07T01:03:58.333Z,0
2017-08-07T01:04:39.238Z,0
2017-08-07T01:05:20.129Z,0
2017-08-07T01:06:01.035Z,0
2017-08-07T01:06:41.919Z,0
2017-08-07T01:07:22.804Z,0
2017-08-07T01:08:03.708Z,0
2017-08-07T01:08:44.596Z,0
2017-08-07T01:09:25.475Z,0
2017-08-07T01:10:06.358Z,0
2017-08-07T01:10:47.245Z,0
2017-08-07T01:11:28.163Z,0
2017-08-07T01:12:09.038Z,0
2017-08-07T01:12:49.925Z,0
2017-08-07T01:13:30.820Z,0
2017-08-07T01:14:11.710Z,0
2017-08-07T01:14:52.597Z,0
2017-08-07T01:15:33.483Z,0
2017-08-07T01:16:14.383Z,0
2017-08-07T01:16:55.271Z,0
2017-08-07T01:17:36.159Z,0
2017-08-07T01:18:17.042Z,0
2017-08-07T01:18:57.924Z,0
2017-08-07T01:19:38.814Z,0
2017-08-07T01:20:19.715Z,0
2017-08-07T01:21:00.595Z,0
2017-08-07T01:21:41.506Z,0
2017-08-07T01:22:22.402Z,0
2017-08-07T01:23:03.294Z,0
2017-08-07T01:23:44.180Z,0
2017-08-07T01:24:25.070Z,0
2017-08-07T01:25:05.961Z,0
2017-08-07T01:25:46.853Z,0
2017-08-07T01:26:27.745Z,0
2017-08-07T01:27:08.631Z,0
2017-08-07T01:27:49.524Z,0
2017-08-07T01:28:30.438Z,0
2017-08-07T01:29:11.325Z,0
2017-08-07T01:29:52.196Z,0
2017-08-07T01:30:33.091Z,0
2017-08-07T01:31:13.987Z,0
2017-08-07T01:31:54.936Z,0
2017-08-07T01:32:35.826Z,0
2017-08-07T01:33:16.721Z,0
2017-08-07T01:33:57.617Z,0
2017-08-07T01:34:38.499Z,0
2017-08-07T01:35:19.392Z,0
2017-08-07T01:36:00.273Z,0
2017-08-07T01:36:41.167Z,0
2017-08-07T01:37:22.068Z,0
2017-08-07T01:38:02.944Z,0
2017-08-07T01:38:43.825Z,0
2017-08-07T01:39:24.723Z,0
2017-08-07T01:40:05.648Z,0
2017-08-07T01:40:46.541Z,0
2017-08-07T01:41:27.432Z,0
2017-08-07T01:42:08.325Z,0
2017-08-07T01:42:49.258Z,0
2017-08-07T01:43:30.160Z,0
2017-08-07T01:44:11.041Z,0
2017-08-07T01:44:51.920Z,0
2017-08-07T01:45:32.804Z,0
2017-08-07T01:46:13.700Z,0
2017-08-07T01:46:54.595Z,0
2017-08-07T01:47:35.491Z,0
2017-08-07T01:48:16.388Z,0
2017-08-07T01:48:57.245Z,0
2017-08-07T01:49:38.137Z,0
2017-08-07T01:50:19.032Z,0
2017-08-07T01:50:59.920Z,0
2017-08-07T01:51:40.810Z,0
2017-08-07T01:52:21.696Z,0
2017-08-07T01:53:02.589Z,0
2017-08-07T01:53:43.480Z,0
2017-08-07T01:54:24.372Z,0
2017-08-07T01:55:05.255Z,0
2017-08-07T01:55:46.149Z,0
2017-08-07T01:56:27.043Z,0
2017-08-07T01:57:07.931Z,0
2017-08-07T01:57:48.804Z,0
2017-08-07T01:58:29.697Z,0
2017-08-07T01:59:10.590Z,0
2017-08-07T01:59:51.487Z,0
2017-08-07T02:00:32.376Z,0
2017-08-07T02:01:13.263Z,0
2017-08-07T02:01:54.148Z,0
2017-08-07T02:02:35.058Z,0
2017-08-07T02:03:15.951Z,0
2017-08-07T02:03:56.831Z,0
2017-08-07T02:04:37.730Z,0
2017-08-07T02:05:18.620Z,0
2017-08-07T02:05:59.512Z,0
2017-08-07T02:06:40.406Z,0
2017-08-07T02:07:21.294Z,0
2017-08-07T02:08:02.181Z,0
2017-08-07T02:08:43.081Z,0
2017-08-07T02:09:23.971Z,0
2017-08-07T02:10:04.864Z,0
2017-08-07T02:10:45.758Z,0
2017-08-07T02:11:26.643Z,0
2017-08-07T02:13:25.432Z,0
2017-08-07T02:14:06.309Z,0
2017-08-07T02:14:47.203Z,0
2017-08-07T02:15:28.080Z,0
2017-08-07T02:16:08.993Z,0
2017-08-07T02:16:49.879Z,0
2017-08-07T02:17:30.768Z,0
2017-08-07T02:18:11.670Z,0
2017-08-07T02:18:52.554Z,0
2017-08-07T02:19:33.439Z,0
2017-08-07T02:20:14.317Z,0
2017-08-07T02:20:55.204Z,0
2017-08-07T02:21:36.094Z,0
2017-08-07T02:22:16.986Z,0
2017-08-07T02:22:57.880Z,0
2017-08-07T02:23:38.770Z,0
2017-08-07T02:24:19.656Z,0
2017-08-07T02:25:00.540Z,0
2017-08-07T02:25:41.507Z,0
2017-08-07T02:26:22.392Z,0
2017-08-07T02:27:03.306Z,0
2017-08-07T02:27:44.196Z,0
2017-08-07T02:28:25.083Z,0
2017-08-07T02:29:05.969Z,0
2017-08-07T02:29:46.864Z,0
2017-08-07T02:30:27.752Z,0
2017-08-07T02:31:08.640Z,0
2017-08-07T02:31:49.533Z,0
2017-08-07T02:32:30.420Z,0
2017-08-07T02:33:11.306Z,0
2017-08-07T02:33:52.186Z,0
2017-08-07T02:34:33.072Z,0
2017-08-07T02:35:13.952Z,0
2017-08-07T02:35:54.844Z,0
2017-08-07T02:36:35.732Z,0
2017-08-07T02:37:16.617Z,0
2017-08-07T02:37:57.504Z,0
2017-08-07T02:38:38.398Z,0
2017-08-07T02:39:19.290Z,0
2017-08-07T02:40:00.170Z,0
2017-08-07T02:40:41.065Z,0
2017-08-07T02:41:21.943Z,0
2017-08-07T02:42:02.839Z,0
2017-08-07T02:42:43.731Z,0
2017-08-07T02:43:24.633Z,0
2017-08-07T02:44:05.515Z,0
2017-08-07T02:44:46.405Z,0
2017-08-07T02:45:27.297Z,0
2017-08-07T02:46:08.183Z,0
2017-08-07T02:46:49.068Z,0
2017-08-07T02:47:29.963Z,0
2017-08-07T02:48:10.846Z,0
2017-08-07T02:48:51.740Z,0
2017-08-07T02:49:32.636Z,0
2017-08-07T02:50:13.520Z,0
2017-08-07T02:50:54.403Z,0
2017-08-07T02:51:35.303Z,0
2017-08-07T02:52:16.201Z,0
2017-08-07T02:52:57.085Z,0
2017-08-07T02:53:37.967Z,0
2017-08-07T02:54:18.856Z,0
2017-08-07T02:54:59.733Z,0
2017-08-07T02:55:40.626Z,0
2017-08-07T02:56:21.518Z,0
2017-08-07T02:57:02.406Z,0
2017-08-07T02:57:43.301Z,0
2017-08-07T02:58:24.183Z,0
2017-08-07T02:59:05.078Z,0
2017-08-07T02:59:45.967Z,0
2017-08-07T03:00:26.862Z,0
2017-08-07T03:01:07.740Z,0
2017-08-07T03:01:48.629Z,0
2017-08-07T03:02:29.516Z,0
2017-08-07T03:03:10.402Z,0
2017-08-07T03:03:51.291Z,0
2017-08-07T03:04:32.199Z,0
2017-08-07T03:05:13.070Z,0
2017-08-07T03:05:53.962Z,0
2017-08-07T03:06:34.846Z,0
2017-08-07T03:07:15.736Z,0
2017-08-07T03:07:56.623Z,0
2017-08-07T03:08:37.516Z,0
2017-08-07T03:09:18.409Z,0
2017-08-07T03:09:59.314Z,0
2017-08-07T03:10:40.202Z,0
2017-08-07T03:11:21.106Z,0
2017-08-07T03:12:01.991Z,0
2017-08-07T03:12:42.883Z,0
2017-08-07T03:13:23.778Z,0
2017-08-07T03:14:04.672Z,0
2017-08-07T03:14:45.561Z,0
2017-08-07T03:15:26.454Z,0
2017-08-07T03:16:07.343Z,0
2017-08-07T03:16:48.238Z,0
2017-08-07T03:17:29.118Z,0
2017-08-07T03:18:10.019Z,0
2017-08-07T03:18:50.907Z,0
2017-08-07T03:19:31.790Z,0
2017-08-07T03:20:12.686Z,0
2017-08-07T03:20:53.573Z,0
2017-08-07T03:21:34.460Z,0
2017-08-07T03:22:15.366Z,0
2017-08-07T03:22:56.255Z,0
2017-08-07T03:23:37.144Z,0
2017-08-07T03:24:18.022Z,0
2017-08-07T03:24:58.911Z,0
2017-08-07T03:25:39.850Z,0
2017-08-07T03:26:20.739Z,0
2017-08-07T03:27:01.630Z,0
2017-08-07T03:27:42.519Z,0
2017-08-07T03:28:23.422Z,0
2017-08-07T03:29:04.291Z,0
2017-08-07T03:29:45.187Z,0
2017-08-07T03:30:26.076Z,0
2017-08-07T03:31:06.962Z,5
2017-08-07T03:31:47.850Z,5
2017-08-07T03:32:28.745Z,5
2017-08-07T03:33:09.638Z,5
2017-08-07T03:33:50.512Z,5
2017-08-07T03:34:31.399Z,5
2017-08-07T03:35:12.311Z,5
2017-08-07T03:35:53.188Z,5
2017-08-07T03:36:34.084Z,5
2017-08-07T03:37:14.953Z,5
2017-08-07T03:37:55.852Z,5
2017-08-07T03:38:36.732Z,5
2017-08-07T03:39:17.617Z,5
2017-08-07T03:39:58.509Z,10
2017-08-07T03:40:39.399Z,10
2017-08-07T03:41:20.291Z,10
2017-08-07T03:42:01.182Z,10
2017-08-07T03:42:42.070Z,10
2017-08-07T03:43:22.962Z,10
2017-08-07T03:44:03.856Z,10
2017-08-07T03:44:44.726Z,10
2017-08-07T03:45:25.616Z,10
2017-08-07T03:46:06.664Z,15
2017-08-07T03:46:47.558Z,15
2017-08-07T03:47:28.452Z,15
2017-08-07T03:48:09.345Z,15
2017-08-07T03:48:50.227Z,15
2017-08-07T03:49:31.115Z,15
2017-08-07T03:50:11.998Z,15
2017-08-07T03:50:52.899Z,15
2017-08-07T03:51:33.792Z,15
2017-08-07T03:52:14.682Z,20
2017-08-07T03:52:55.579Z,20
2017-08-07T03:53:36.463Z,20
2017-08-07T03:54:17.340Z,20
2017-08-07T03:54:58.230Z,20
2017-08-07T03:55:39.113Z,20
2017-08-07T03:56:19.998Z,20
2017-08-07T03:57:00.890Z,25
2017-08-07T03:57:41.771Z,25
2017-08-07T03:58:22.668Z,25
2017-08-07T03:59:03.566Z,25
2017-08-07T03:59:44.453Z,25
2017-08-07T04:00:25.341Z,25
2017-08-07T04:01:06.230Z,25
2017-08-07T04:01:47.118Z,25
2017-08-07T04:02:28.017Z,30
2017-08-07T04:03:08.902Z,30
2017-08-07T04:03:49.785Z,30
2017-08-07T04:04:30.675Z,30
2017-08-07T04:05:11.555Z,30
2017-08-07T04:05:52.434Z,30
2017-08-07T04:06:33.328Z,35
2017-08-07T04:07:14.217Z,35
2017-08-07T04:07:55.148Z,35
2017-08-07T04:08:36.032Z,35
2017-08-07T04:09:16.925Z,35
2017-08-07T04:09:57.810Z,35
2017-08-07T04:10:38.696Z,35
2017-08-07T04:11:19.599Z,40
2017-08-07T04:12:00.485Z,40
2017-08-07T04:12:41.370Z,40
2017-08-07T04:13:22.297Z,40
2017-08-07T04:14:03.192Z,40
2017-08-07T04:14:44.073Z,40
2017-08-07T04:15:24.967Z,40
2017-08-07T04:16:05.860Z,45
2017-08-07T04:16:46.749Z,45
2017-08-07T04:17:27.641Z,45
2017-08-07T04:18:08.524Z,45
2017-08-07T04:20:29.237Z,50
2017-08-07T04:21:10.122Z,50
2017-08-07T04:21:51.009Z,50
2017-08-07T04:22:31.890Z,50
2017-08-07T04:23:12.777Z,50
2017-08-07T04:23:53.660Z,50
2017-08-07T04:24:34.550Z,50
2017-08-07T04:25:15.429Z,55
2017-08-07T04:25:56.305Z,55
2017-08-07T04:26:37.192Z,55
2017-08-07T04:27:18.092Z,55
2017-08-07T04:27:58.966Z,55
2017-08-07T04:28:39.847Z,55
2017-08-07T04:29:20.859Z,60
2017-08-07T04:34:01.890Z,65
2017-08-07T04:34:42.774Z,65
2017-08-07T04:35:23.679Z,65
2017-08-07T04:36:04.554Z,65
2017-08-07T04:36:45.445Z,65
2017-08-07T04:37:26.346Z,65
2017-08-07T04:38:07.209Z,70
2017-08-07T04:38:48.080Z,70
2017-08-07T04:39:28.962Z,70
2017-08-07T04:40:09.865Z,70
2017-08-07T04:40:50.748Z,70
2017-08-07T04:41:31.711Z,70
2017-08-07T04:42:12.592Z,75
2017-08-07T04:42:53.499Z,75
2017-08-07T04:43:34.379Z,75
2017-08-07T04:44:15.245Z,75
2017-08-07T04:44:56.134Z,75
2017-08-07T04:45:37.017Z,75
2017-08-07T04:46:17.906Z,80
2017-08-07T04:46:58.789Z,80
2017-08-07T04:47:39.684Z,80
2017-08-07T04:48:20.574Z,80
2017-08-07T04:49:01.457Z,80
2017-08-07T04:49:42.337Z,80
2017-08-07T04:50:23.240Z,85
2017-08-07T04:51:04.129Z,85
2017-08-07T04:51:45.014Z,85
2017-08-07T04:52:25.901Z,85
2017-08-07T04:53:06.803Z,85
2017-08-07T04:53:47.686Z,85
2017-08-07T04:54:28.578Z,90
2017-08-07T04:55:09.467Z,90
2017-08-07T04:57:23.736Z,90
2017-08-07T04:58:04.697Z,90
2017-08-07T04:58:45.546Z,95
2017-08-07T04:59:26.429Z,95
2017-08-07T05:00:07.318Z,95
2017-08-07T05:00:48.192Z,95
2017-08-07T05:01:29.074Z,95
2017-08-07T05:02:09.968Z,95
2017-08-07T05:02:50.859Z,100
2017-08-07T05:03:31.733Z,100
2017-08-07T05:04:12.607Z,100
2017-08-07T05:04:53.494Z,100
2017-08-07T05:05:34.381Z,100
2017-08-07T05:06:15.268Z,100
2017-08-07T05:06:56.151Z,105
2017-08-07T05:07:37.042Z,105
2017-08-07T05:08:17.921Z,105
2017-08-07T05:08:58.802Z,105
2017-08-07T05:09:39.677Z,105
2017-08-07T05:10:20.561Z,105
2017-08-07T05:11:01.453Z,110
2017-08-07T05:11:42.334Z,110
2017-08-07T05:12:23.232Z,110
2017-08-07T05:13:04.133Z,110
2017-08-07T05:13:45.020Z,110
2017-08-07T05:14:25.898Z,110
2017-08-07T05:15:06.798Z,115
2017-08-07T05:15:47.677Z,115
2017-08-07T05:16:28.554Z,115
2017-08-07T05:17:09.427Z,115
2017-08-07T05:17:50.310Z,115
2017-08-07T05:18:31.212Z,115
2017-08-07T05:19:12.068Z,120
2017-08-07T05:19:52.948Z,120
2017-08-07T05:20:33.824Z,120
2017-08-07T05:21:14.725Z,120
2017-08-07T05:21:55.603Z,120
2017-08-07T05:22:36.484Z,120
2017-08-07T05:23:17.368Z,125
2017-08-07T05:23:58.348Z,125
2017-08-07T05:24:39.155Z,125
2017-08-07T05:25:20.056Z,125
2017-08-07T05:26:00.957Z,125
2017-08-07T05:26:41.852Z,125
2017-08-07T05:27:22.753Z,130
2017-08-07T05:28:03.624Z,130
2017-08-07T05:28:44.498Z,130
2017-08-07T05:29:25.522Z,130
2017-08-07T05:30:06.301Z,130
2017-08-07T05:30:47.182Z,130
2017-08-07T05:31:28.079Z,135
2017-08-07T05:32:08.965Z,135
2017-08-07T05:32:49.854Z,135
2017-08-07T05:33:30.742Z,135
2017-08-07T05:34:11.650Z,135
2017-08-07T05:34:52.513Z,135
2017-08-07T05:35:33.393Z,135
2017-08-07T05:36:14.279Z,140
2017-08-07T05:36:55.178Z,140
2017-08-07T05:37:36.054Z,140
2017-08-07T05:38:16.950Z,140
2017-08-07T05:38:57.823Z,140
2017-08-07T05:39:38.717Z,140
2017-08-07T05:40:19.628Z,145
2017-08-07T05:41:00.501Z,145
2017-08-07T05:43:10.504Z,145
2017-08-07T05:43:51.382Z,150
2017-08-07T05:44:32.273Z,150
2017-08-07T05:45:13.175Z,150
2017-08-07T05:45:54.106Z,150
2017-08-07T05:46:34.995Z,150
2017-08-07T05:47:15.873Z,150
2017-08-07T05:47:56.773Z,155
2017-08-07T05:48:37.676Z,155
2017-08-07T05:49:18.553Z,155
2017-08-07T05:49:59.449Z,155
2017-08-07T05:50:40.340Z,155
2017-08-07T05:51:21.216Z,160
2017-08-07T05:52:02.125Z,160
2017-08-07T05:52:43.011Z,160
2017-08-07T05:53:23.893Z,160
2017-08-07T05:55:32.915Z,165
2017-08-07T05:56:13.801Z,165
2017-08-07T05:56:54.684Z,165
2017-08-07T05:57:35.561Z,170
2017-08-07T05:58:16.450Z,170
2017-08-07T05:58:57.355Z,170
2017-08-07T05:59:38.248Z,170
2017-08-07T06:00:19.127Z,170
2017-08-07T06:01:00.014Z,170
2017-08-07T06:01:40.916Z,170
2017-08-07T06:02:21.800Z,170
2017-08-07T06:03:02.687Z,175
2017-08-07T06:03:43.588Z,175
2017-08-07T06:04:24.501Z,175
2017-08-07T06:05:05.389Z,175
2017-08-07T06:05:46.274Z,180
2017-08-07T06:07:45.187Z,185
2017-08-07T06:08:26.171Z,185
2017-08-07T06:09:06.976Z,185
2017-08-07T06:09:47.930Z,185
2017-08-07T06:10:28.812Z,190
2017-08-07T06:11:09.701Z,190
2017-08-07T06:11:50.565Z,190
2017-08-07T06:12:31.457Z,190
2017-08-07T06:13:12.343Z,190
2017-08-07T06:13:53.229Z,200
2017-08-07T06:14:34.120Z,195
2017-08-07T06:15:14.997Z,195
2017-08-07T06:15:55.881Z,200
2017-08-07T06:16:36.762Z,200
2017-08-07T06:17:17.649Z,200
2017-08-07T06:17:58.538Z,205
2017-08-07T06:18:39.420Z,205
2017-08-07T06:19:20.313Z,210
2017-08-07T06:20:01.222Z,210
2017-08-07T06:20:42.096Z,215
2017-08-07T06:21:22.974Z,215
2017-08-07T06:22:03.875Z,220
2017-08-07T06:22:44.777Z,220
2017-08-07T06:23:25.636Z,225
2017-08-07T06:24:06.555Z,230
2017-08-07T06:24:47.420Z,230
2017-08-07T06:25:28.301Z,230
2017-08-07T06:26:09.185Z,235
2017-08-07T06:26:50.079Z,240
2017-08-07T06:27:30.968Z,245
2017-08-07T06:28:11.864Z,250
2017-08-07T06:28:52.746Z,255
2017-08-07T06:29:33.647Z,260
2017-08-07T06:30:14.540Z,265
2017-08-07T06:30:55.431Z,270
2017-08-07T06:31:36.323Z,275
2017-08-07T06:32:17.210Z,275
2017-08-07T06:32:58.105Z,280
2017-08-07T06:33:38.997Z,295
2017-08-07T06:34:19.894Z,295
2017-08-07T06:35:00.793Z,305
2017-08-07T06:35:41.682Z,310
2017-08-07T06:36:22.573Z,315
2017-08-07T06:37:03.480Z,325
2017-08-07T06:37:44.358Z,330
2017-08-07T06:38:25.248Z,340
2017-08-07T06:39:06.145Z,345
2017-08-07T06:39:47.022Z,350
2017-08-07T06:40:27.903Z,350
2017-08-07T06:41:08.809Z,360
2017-08-07T06:41:49.687Z,360
2017-08-07T06:42:30.592Z,365
2017-08-07T06:43:11.492Z,375
2017-08-07T06:43:52.383Z,380
2017-08-07T06:44:33.277Z,575
2017-08-07T06:45:14.207Z,960
2017-08-07T06:45:55.090Z,1395
2017-08-07T06:46:35.994Z,1795
2017-08-07T06:47:16.877Z,2050
2017-08-07T06:47:57.768Z,2090
2017-08-07T06:48:38.665Z,2080
2017-08-07T06:49:19.555Z,2065
2017-08-07T06:50:00.466Z,2035
2017-08-07T06:50:41.356Z,2000
2017-08-07T06:51:22.252Z,1985
2017-08-07T06:52:03.162Z,2010
2017-08-07T06:52:44.109Z,2080
2017-08-07T06:53:25.010Z,2175
2017-08-07T06:55:24.791Z,2260
2017-08-07T06:56:05.717Z,2130
2017-08-07T06:56:46.589Z,2025
2017-08-07T06:57:27.492Z,1995
2017-08-07T06:58:08.438Z,1995
2017-08-07T06:58:49.452Z,1975
2017-08-07T06:59:31.138Z,1970
2017-08-07T07:00:12.032Z,1900
2017-08-07T07:00:52.928Z,1685
2017-08-07T07:01:33.820Z,1545
2017-08-07T07:02:14.713Z,1555
2017-08-07T07:02:55.606Z,1675
2017-08-07T07:03:36.524Z,1885
2017-08-07T07:04:17.423Z,1925
2017-08-07T07:04:58.324Z,1930
2017-08-07T07:05:39.217Z,1940
2017-08-07T07:06:20.132Z,1935
2017-08-07T07:07:01.007Z,1930
2017-08-07T07:07:41.926Z,1930
2017-08-07T07:08:22.823Z,1945
2017-08-07T07:09:03.716Z,1985
2017-08-07T07:09:44.625Z,2055
2017-08-07T07:10:25.535Z,2120
2017-08-07T07:11:06.423Z,2145
2017-08-07T07:11:47.325Z,2190
2017-08-07T07:12:28.231Z,2225
2017-08-07T07:13:09.151Z,2220
2017-08-07T07:13:50.049Z,2160
2017-08-07T07:14:30.958Z,2120
2017-08-07T07:15:11.847Z,2050
2017-08-07T07:15:52.764Z,1955
2017-08-07T07:16:33.662Z,1870
2017-08-07T07:17:14.576Z,1710
2017-08-07T07:17:55.484Z,1620
2017-08-07T07:18:36.382Z,1600
2017-08-07T07:19:17.282Z,1630
2017-08-07T07:19:58.169Z,1675
2017-08-07T07:20:39.077Z,1770
2017-08-07T07:21:19.979Z,1895
2017-08-07T07:22:00.875Z,1935
2017-08-07T07:22:41.770Z,1980
2017-08-07T07:23:22.650Z,1995
2017-08-07T07:24:03.548Z,2015
2017-08-07T07:24:44.513Z,2005
2017-08-07T07:25:25.375Z,2010
2017-08-07T07:26:06.280Z,2030
2017-08-07T07:26:47.176Z,2085
2017-08-07T07:27:28.079Z,2160
2017-08-07T07:28:08.973Z,2230
2017-08-07T07:28:49.874Z,2255
2017-08-07T07:29:30.774Z,2245
2017-08-07T07:30:11.665Z,2215
2017-08-07T07:30:52.575Z,2165
2017-08-07T07:31:33.470Z,2120
2017-08-07T07:32:14.419Z,2100
2017-08-07T07:32:55.333Z,2130
2017-08-07T07:33:36.229Z,2140
2017-08-07T07:34:17.153Z,2140
2017-08-07T07:34:58.036Z,2040
2017-08-07T07:35:38.952Z,1825
2017-08-07T07:36:19.842Z,1700
2017-08-07T07:37:00.740Z,1725
2017-08-07T07:37:41.612Z,1795
2017-08-07T07:38:22.506Z,1495
2017-08-07T07:39:04.218Z,1050
2017-08-07T07:39:45.109Z,685
2017-08-07T07:40:26.021Z,550
2017-08-07T07:41:06.925Z,515
2017-08-07T07:41:47.829Z,505
2017-08-07T07:42:28.719Z,495
2017-08-07T07:43:09.632Z,500
2017-08-07T07:43:50.529Z,490
2017-08-07T07:44:31.434Z,485
2017-08-07T07:45:12.335Z,485
2017-08-07T07:45:53.234Z,480
2017-08-07T07:46:34.157Z,485
2017-08-07T07:47:15.039Z,485
2017-08-07T07:47:55.939Z,485
2017-08-07T07:48:36.833Z,485
2017-08-07T07:49:17.734Z,485
2017-08-07T07:49:58.632Z,485
2017-08-07T07:50:39.539Z,485
2017-08-07T07:51:20.442Z,485
2017-08-07T07:52:01.340Z,490
2017-08-07T07:52:42.263Z,485
2017-08-07T07:53:23.183Z,490
2017-08-07T07:54:04.087Z,490
2017-08-07T07:54:44.970Z,490
2017-08-07T07:55:25.858Z,490
2017-08-07T07:56:06.757Z,495
2017-08-07T07:56:47.634Z,495
2017-08-07T07:57:28.746Z,495
2017-08-07T07:59:48.288Z,515
2017-08-07T08:00:29.195Z,525
2017-08-07T08:01:10.102Z,550
2017-08-07T08:01:51.013Z,660
2017-08-07T08:02:31.914Z,1035
2017-08-07T08:03:12.822Z,1400
2017-08-07T08:03:53.729Z,1810
2017-08-07T08:04:34.639Z,2020
2017-08-07T08:05:15.615Z,2320
2017-08-07T08:05:56.893Z,2395
2017-08-07T08:06:37.799Z,2410
2017-08-07T08:07:18.708Z,2405
2017-08-07T08:07:59.597Z,2375
2017-08-07T08:08:40.481Z,2345
2017-08-07T08:09:21.378Z,2365
2017-08-07T08:10:02.280Z,2405
2017-08-07T08:10:43.185Z,2425
2017-08-07T08:11:24.074Z,2465
2017-08-07T08:12:04.966Z,2490
2017-08-07T08:12:45.853Z,2510
2017-08-07T08:13:26.749Z,2540
2017-08-07T08:14:07.645Z,2550
2017-08-07T08:14:48.559Z,2570
2017-08-07T08:15:29.511Z,2580
2017-08-07T08:16:10.429Z,2590
2017-08-07T08:16:51.349Z,2615
2017-08-07T08:17:32.234Z,2645
2017-08-07T08:18:13.143Z,2660
2017-08-07T08:18:54.036Z,2335
2017-08-07T08:19:34.949Z,2265
2017-08-07T08:20:16.002Z,2275
2017-08-07T08:20:56.904Z,2550
2017-08-07T08:21:37.802Z,2790
2017-08-07T08:22:18.698Z,2855
2017-08-07T08:22:59.602Z,2885
2017-08-07T08:23:40.519Z,2870
2017-08-07T08:24:21.436Z,2830
2017-08-07T08:25:02.338Z,2795
2017-08-07T08:25:43.228Z,2645
2017-08-07T08:26:24.148Z,2480
2017-08-07T08:27:05.050Z,2380
2017-08-07T08:27:45.948Z,2380
2017-08-07T08:30:00.976Z,2525
2017-08-07T08:30:41.894Z,2695
2017-08-07T08:31:22.789Z,2845
2017-08-07T08:32:03.670Z,2945
2017-08-07T08:32:44.571Z,3035
2017-08-07T08:33:25.463Z,3105
2017-08-07T08:34:06.363Z,3160
2017-08-07T08:34:47.281Z,3215
2017-08-07T08:35:28.195Z,3190
2017-08-07T08:36:09.100Z,3025
2017-08-07T08:36:50.002Z,2560
2017-08-07T08:37:30.910Z,2365
2017-08-07T08:38:11.809Z,2475
2017-08-07T08:38:52.717Z,2745
2017-08-07T08:39:33.613Z,2790
2017-08-07T08:40:14.513Z,2805
2017-08-07T08:40:55.402Z,2890
2017-08-07T08:41:36.300Z,2930
2017-08-07T08:42:17.206Z,2945
2017-08-07T08:42:58.095Z,2885
2017-08-07T08:43:38.989Z,2860
2017-08-07T08:44:19.903Z,2885
2017-08-07T08:45:00.809Z,2920
2017-08-07T08:45:41.713Z,2925
2017-08-07T08:46:22.613Z,2955
2017-08-07T08:47:03.531Z,2970
2017-08-07T08:47:44.442Z,3015
2017-08-07T08:48:25.362Z,3030
2017-08-07T08:49:06.286Z,3065
2017-08-07T08:49:47.176Z,3085
2017-08-07T08:50:28.069Z,3110
2017-08-07T08:51:08.997Z,3090
2017-08-07T08:51:49.917Z,3015
2017-08-07T08:52:30.822Z,2960
2017-08-07T08:53:11.738Z,2940
2017-08-07T08:53:52.623Z,2960
2017-08-07T08:54:33.516Z,2970
2017-08-07T08:55:14.414Z,2980
2017-08-07T08:55:55.313Z,2975
2017-08-07T08:56:36.217Z,2980
2017-08-07T08:57:17.119Z,2945
2017-08-07T08:57:58.011Z,2950
2017-08-07T08:58:38.919Z,2980
2017-08-07T08:59:19.829Z,2985
2017-08-07T09:00:00.734Z,2980
2017-08-07T09:00:41.638Z,2955
2017-08-07T09:01:22.550Z,2620
2017-08-07T09:02:03.458Z,2480
2017-08-07T09:02:44.364Z,2570
2017-08-07T09:03:25.256Z,2950
2017-08-07T09:04:06.190Z,3055
2017-08-07T09:04:47.096Z,1935
2017-08-07T09:05:28.001Z,2830
2017-08-07T09:06:08.904Z,3065
2017-08-07T09:06:49.825Z,3095
2017-08-07T09:07:30.780Z,3080
2017-08-07T09:08:11.723Z,3050
2017-08-07T09:08:52.623Z,3055
2017-08-07T09:09:33.536Z,3055
2017-08-07T09:10:14.419Z,1780
2017-08-07T09:10:55.322Z,2655
2017-08-07T09:11:36.225Z,1000
2017-08-07T09:12:17.122Z,3040
2017-08-07T09:12:58.011Z,3150
2017-08-07T09:13:38.923Z,3190
2017-08-07T09:14:19.817Z,3255
2017-08-07T09:15:00.707Z,3185
2017-08-07T09:15:41.620Z,3100
2017-08-07T09:16:22.518Z,2935
2017-08-07T09:17:03.416Z,2810
2017-08-07T09:17:44.296Z,2785
2017-08-07T09:18:25.183Z,2770
2017-08-07T09:19:06.084Z,1040
2017-08-07T09:19:47.004Z,2520
2017-08-07T09:20:27.890Z,2675
2017-08-07T09:21:08.805Z,2830
2017-08-07T09:21:49.710Z,2925
2017-08-07T09:22:30.668Z,3030
2017-08-07T09:23:11.573Z,3130
2017-08-07T09:23:52.484Z,3220
2017-08-07T09:24:33.404Z,3270
2017-08-07T09:25:14.320Z,3270
2017-08-07T09:25:55.224Z,2850
2017-08-07T09:26:36.162Z,2590
2017-08-07T09:27:17.066Z,2640
2017-08-07T09:27:57.982Z,3075
2017-08-07T09:28:38.913Z,3120
2017-08-07T09:29:19.797Z,3070
2017-08-07T09:30:00.713Z,3040
2017-08-07T09:30:41.609Z,3045
2017-08-07T09:31:22.507Z,3075
2017-08-07T09:32:03.408Z,3065
2017-08-07T09:32:44.305Z,3045
2017-08-07T09:33:25.217Z,3060
2017-08-07T09:34:06.132Z,3040
2017-08-07T09:34:47.033Z,2895
2017-08-07T09:35:27.944Z,2580
2017-08-07T09:36:08.865Z,2995
2017-08-07T09:36:49.764Z,3215
2017-08-07T09:37:30.665Z,1135
2017-08-07T09:38:11.569Z,2985
2017-08-07T09:38:52.492Z,625
2017-08-07T09:39:33.395Z,3195
2017-08-07T09:40:14.301Z,375
2017-08-07T09:40:55.214Z,325
2017-08-07T09:41:36.126Z,315
2017-08-07T09:42:17.043Z,335
2017-08-07T09:42:57.965Z,375
2017-08-07T09:43:38.906Z,395
2017-08-07T09:44:19.801Z,430
2017-08-07T09:45:00.698Z,640
2017-08-07T09:45:41.609Z,480
2017-08-07T09:46:22.508Z,605
2017-08-07T09:47:03.427Z,455
2017-08-07T09:47:44.332Z,400
2017-08-07T09:48:25.221Z,405
2017-08-07T09:49:06.115Z,430
2017-08-07T09:49:47.032Z,475
2017-08-07T09:50:27.927Z,565
2017-08-07T09:51:08.953Z,765
2017-08-07T09:51:49.867Z,2530
2017-08-07T09:52:30.772Z,3045
2017-08-07T09:54:29.636Z,3180
2017-08-07T09:55:10.541Z,1805
2017-08-07T09:55:51.434Z,730